Liberty of The Seas — C6VQ8 — position and weather

sailwx.info

Track history (hours):
 
Tides and Currents Weather Stations Pressure Air Temp Water Temp Dewpoint Dewpoint Depression Visibility Wind Speed Wind Dir Waves Ship Positions

Liberty of The Seas

Last reported at 2019-Aug-19 23:00 UTC. Time now 2019-Aug-20 10:31 UTC.
Position N 23°54' W 088°42'.

Type: Passenger vessel. MMSI: 309436000.

Wind from 100 at 19 knots

Barometer 1014.0 mb
Air temperature 29.8 ° C
Visibility: greater than 10.8 NM

Date/timePositionNaut miles runAvg speedWind from/ knotsBaromVisibWave heightAir tempDewpointWater temp
2019-Aug-19 23:00N 23°54' W 088°42'9418.8 100 / 191014.010.8 29.8
2019-Aug-19 18:00N 25°06' W 089°48'20120.1 110 / 91017.010.8 29.828.7
2019-Aug-19 08:00N 27°36' W 092°18'15317.1 210 / 241015.0 5.4 29.027.6
2019-Aug-18 23:03N 29°13' W 094°32'245.4
2019-Aug-18 23:00N 29°12' W 094°30'398.2 030 / 221013.010.8 30.228.631.8
2019-Aug-18 22:57N 29°14' W 094°33'612.8
2019-Aug-18 22:30N 29°18' W 094°38'713.9
2019-Aug-18 22:00N 29°21' W 094°45'2 4.9
2019-Aug-18 21:30N 29°19' W 094°47'1 1.6
2019-Aug-18 21:00N 29°19' W 094°48'0 0.0
2019-Aug-18 20:29N 29°19' W 094°48'0 0.0
2019-Aug-18 19:56N 29°19' W 094°48'0 0.0
2019-Aug-18 19:29N 29°19' W 094°48'0 0.0
2019-Aug-18 18:59N 29°19' W 094°48'0 0.0
2019-Aug-18 18:29N 29°19' W 094°48'0 0.0
2019-Aug-18 17:59N 29°19' W 094°48'0 0.0
2019-Aug-18 17:29N 29°19' W 094°48'0 0.0
2019-Aug-18 16:59N 29°19' W 094°48'0 0.0
2019-Aug-18 16:29N 29°19' W 094°48'0 0.0
2019-Aug-18 15:59N 29°19' W 094°48'0 0.0
2019-Aug-18 15:29N 29°19' W 094°48'0 0.0
2019-Aug-18 14:59N 29°19' W 094°48'0 0.0
2019-Aug-18 14:29N 29°19' W 094°48'0 0.0
2019-Aug-18 13:53N 29°19' W 094°48'0 0.0
2019-Aug-18 13:26N 29°19' W 094°48'0 0.0
2019-Aug-18 12:59N 29°19' W 094°48'0 0.0
2019-Aug-18 12:20N 29°19' W 094°48'0 0.0
2019-Aug-18 11:56N 29°19' W 094°48'0 0.0
2019-Aug-18 11:23N 29°19' W 094°48'0 0.4
2019-Aug-18 11:00N 29°19' W 094°48'3 6.9
2019-Aug-18 10:30N 29°21' W 094°45'713.9
2019-Aug-18 10:00N 29°18' W 094°37'1014.8
2019-Aug-18 09:21N 29°13' W 094°28'7216.2
2019-Aug-18 04:55N 28°31' W 093°21'29518.5
2019-Aug-17 13:00N 25°18' W 089°12'7318.1 180 / 271015.010.8 28.126.630.6
2019-Aug-17 09:00N 24°30' W 088°12'42220.1 170 / 191016.0 5.4 29.027.629.0
2019-Aug-16 12:00N 20°18' W 082°06'72 1.7 080 / 141016.010.8 29.027.6
2019-Aug-14 17:00N 19°18' W 081°24'18 4.5 120 / 81015.010.8 30.428.530.0
2019-Aug-14 13:00N 19°24' W 081°42'30020.6 140 / 101015.010.8 29.527.430.4
2019-Aug-13 22:27N 20°39' W 086°51'921.4
2019-Aug-13 22:00N 20°34' W 086°59'510.6
2019-Aug-13 21:30N 20°29' W 086°59'0 0.0
2019-Aug-13 21:00N 20°29' W 086°59'0 0.0
2019-Aug-13 20:30N 20°29' W 086°59'0 0.0
2019-Aug-13 20:00N 20°29' W 086°59'0 0.0
2019-Aug-13 19:30N 20°29' W 086°59'0 0.0
2019-Aug-13 19:00N 20°29' W 086°59'0 0.0
2019-Aug-13 18:30N 20°29' W 086°59'0 0.0
2019-Aug-13 18:00N 20°29' W 086°59'0 0.0
2019-Aug-13 17:27N 20°29' W 086°59'0 0.0
2019-Aug-13 16:57N 20°29' W 086°59'0 0.0
2019-Aug-13 16:30N 20°29' W 086°59'0 0.0
2019-Aug-13 15:57N 20°29' W 086°59'0 0.0
2019-Aug-13 15:30N 20°29' W 086°59'0 0.0
2019-Aug-13 15:00N 20°29' W 086°59'0 0.0
2019-Aug-13 14:30N 20°29' W 086°59'0 0.0
2019-Aug-13 14:00N 20°29' W 086°59'6962.8
2019-Aug-13 14:00N 20°24' W 086°54'613.0 130 / 41014.010.8 29.327.5
2019-Aug-13 13:30N 20°29' W 086°59'0 0.0
2019-Aug-13 13:00N 20°29' W 086°59'0 0.0
2019-Aug-13 12:30N 20°29' W 086°59'2 3.3
2019-Aug-13 12:00N 20°30' W 086°59'713.4
2019-Aug-13 11:30N 20°36' W 086°57'917.8
2019-Aug-13 11:00N 20°43' W 086°50'30517.9
2019-Aug-12 18:00N 25°00' W 089°48'27618.9 220 / 31016.010.8 30.428.531.0
2019-Aug-12 03:25N 28°25' W 093°14'1719.0
2019-Aug-12 02:31N 28°36' W 093°30'118.8
2019-Aug-12 02:27N 28°36' W 093°31'1318.3
2019-Aug-12 01:46N 28°43' W 093°42'2417.9
2019-Aug-12 00:26N 28°57' W 094°05'817.0
2019-Aug-11 23:59N 29°02' W 094°12'816.6
2019-Aug-11 23:30N 29°06' W 094°19'815.5
2019-Aug-11 23:00N 29°10' W 094°27'815.8
2019-Aug-11 22:30N 29°15' W 094°34'713.7
2019-Aug-11 22:00N 29°20' W 094°40'612.3
2019-Aug-11 21:30N 29°19' W 094°47'2 3.2
2019-Aug-11 21:00N 29°19' W 094°48'0 0.0
2019-Aug-11 20:28N 29°19' W 094°48'0 0.0
2019-Aug-11 19:58N 29°19' W 094°48'0 0.0
2019-Aug-11 19:28N 29°19' W 094°48'0 0.0
2019-Aug-11 18:58N 29°19' W 094°48'0 0.0
2019-Aug-11 18:28N 29°19' W 094°48'0 0.0
2019-Aug-11 17:55N 29°19' W 094°48'0 0.0
2019-Aug-11 17:28N 29°19' W 094°48'1 1.1
2019-Aug-11 17:00N 29°18' W 094°48'123.5 170 / 91017.010.8 30.628.4
2019-Aug-11 16:58N 29°19' W 094°48'0 0.0
2019-Aug-11 16:28N 29°19' W 094°48'0 0.0
2019-Aug-11 15:58N 29°19' W 094°48'0 0.0
2019-Aug-11 15:28N 29°19' W 094°48'0 0.0
2019-Aug-11 14:58N 29°19' W 094°48'0 0.0
2019-Aug-11 14:28N 29°19' W 094°48'0 0.0
2019-Aug-11 13:58N 29°19' W 094°48'0 0.0
2019-Aug-11 13:28N 29°19' W 094°48'0 0.0
2019-Aug-11 12:49N 29°19' W 094°48'0 0.0
2019-Aug-11 12:13N 29°19' W 094°48'0 0.0
2019-Aug-11 11:37N 29°19' W 094°48'0 0.0
2019-Aug-11 11:15N 29°19' W 094°48'0 1.2
2019-Aug-11 11:00N 29°19' W 094°48'4 7.7
2019-Aug-11 10:30N 29°21' W 094°44'713.2
2019-Aug-11 09:59N 29°18' W 094°37'714.2
2019-Aug-11 09:29N 29°14' W 094°30'916.2
2019-Aug-11 08:57N 29°09' W 094°22'715.8
2019-Aug-11 08:30N 29°05' W 094°16'816.3
2019-Aug-11 08:00N 29°00' W 094°08'816.3
2019-Aug-11 07:30N 28°56' W 094°00'816.6
2019-Aug-11 07:01N 28°51' W 093°52'917.1
2019-Aug-11 06:28N 28°46' W 093°44'817.2
2019-Aug-11 06:00N 28°41' W 093°36'816.9
2019-Aug-11 05:30N 28°36' W 093°29'917.3
2019-Aug-11 05:00N 28°31' W 093°21'1017.3
2019-Aug-11 04:24N 28°25' W 093°11'717.3
2019-Aug-11 04:00N 28°21' W 093°05'816.6
2019-Aug-11 03:30N 28°17' W 092°57'816.2
2019-Aug-11 03:00N 28°11' W 092°50'6120.3
2019-Aug-11 00:00N 27°24' W 092°06'10517.4 070 / 61015.010.8 30.028.7
2019-Aug-10 18:00N 26°06' W 090°48'19121.2 110 / 41016.010.8
2019-Aug-10 09:00N 23°42' W 088°30'   140 / 101015.010.8 28.026.6
Track history (hours):
 
Tides and Currents Weather Stations Pressure Air Temp Water Temp Dewpoint Dewpoint Depression Visibility Wind Speed Wind Dir Waves Ship Positions

Liberty of The Seas

Last reported at 2019-Aug-19 23:00 UTC. Time now 2019-Aug-20 10:31 UTC.
Position N 23°54' W 088°42'.

Type: Passenger vessel. MMSI: 309436000.

Wind from 100 at 19 knots

Barometer 1014.0 mb
Air temperature 29.8 ° C
Visibility: greater than 10.8 NM

Date/timePositionNaut miles runAvg speedWind from/ knotsBaromVisibWave heightAir tempDewpointWater temp
2019-Aug-19 23:00N 23°54' W 088°42'9418.8 100 / 191014.010.8 29.8
2019-Aug-19 18:00N 25°06' W 089°48'20120.1 110 / 91017.010.8 29.828.7
2019-Aug-19 08:00N 27°36' W 092°18'15317.1 210 / 241015.0 5.4 29.027.6
2019-Aug-18 23:03N 29°13' W 094°32'245.4
2019-Aug-18 23:00N 29°12' W 094°30'398.2 030 / 221013.010.8 30.228.631.8
2019-Aug-18 22:57N 29°14' W 094°33'612.8
2019-Aug-18 22:30N 29°18' W 094°38'713.9
2019-Aug-18 22:00N 29°21' W 094°45'2 4.9
2019-Aug-18 21:30N 29°19' W 094°47'1 1.6
2019-Aug-18 21:00N 29°19' W 094°48'0 0.0
2019-Aug-18 20:29N 29°19' W 094°48'0 0.0
2019-Aug-18 19:56N 29°19' W 094°48'0 0.0
2019-Aug-18 19:29N 29°19' W 094°48'0 0.0
2019-Aug-18 18:59N 29°19' W 094°48'0 0.0
2019-Aug-18 18:29N 29°19' W 094°48'0 0.0
2019-Aug-18 17:59N 29°19' W 094°48'0 0.0
2019-Aug-18 17:29N 29°19' W 094°48'0 0.0
2019-Aug-18 16:59N 29°19' W 094°48'0 0.0
2019-Aug-18 16:29N 29°19' W 094°48'0 0.0
2019-Aug-18 15:59N 29°19' W 094°48'0 0.0
2019-Aug-18 15:29N 29°19' W 094°48'0 0.0
2019-Aug-18 14:59N 29°19' W 094°48'0 0.0
2019-Aug-18 14:29N 29°19' W 094°48'0 0.0
2019-Aug-18 13:53N 29°19' W 094°48'0 0.0
2019-Aug-18 13:26N 29°19' W 094°48'0 0.0
2019-Aug-18 12:59N 29°19' W 094°48'0 0.0
2019-Aug-18 12:20N 29°19' W 094°48'0 0.0
2019-Aug-18 11:56N 29°19' W 094°48'0 0.0
2019-Aug-18 11:23N 29°19' W 094°48'0 0.4
2019-Aug-18 11:00N 29°19' W 094°48'3 6.9
2019-Aug-18 10:30N 29°21' W 094°45'713.9
2019-Aug-18 10:00N 29°18' W 094°37'1014.8
2019-Aug-18 09:21N 29°13' W 094°28'7216.2
2019-Aug-18 04:55N 28°31' W 093°21'29518.5
2019-Aug-17 13:00N 25°18' W 089°12'7318.1 180 / 271015.010.8 28.126.630.6
2019-Aug-17 09:00N 24°30' W 088°12'42220.1 170 / 191016.0 5.4 29.027.629.0
2019-Aug-16 12:00N 20°18' W 082°06'72 1.7 080 / 141016.010.8 29.027.6
2019-Aug-14 17:00N 19°18' W 081°24'18 4.5 120 / 81015.010.8 30.428.530.0
2019-Aug-14 13:00N 19°24' W 081°42'30020.6 140 / 101015.010.8 29.527.430.4
2019-Aug-13 22:27N 20°39' W 086°51'921.4
2019-Aug-13 22:00N 20°34' W 086°59'510.6
2019-Aug-13 21:30N 20°29' W 086°59'0 0.0
2019-Aug-13 21:00N 20°29' W 086°59'0 0.0
2019-Aug-13 20:30N 20°29' W 086°59'0 0.0
2019-Aug-13 20:00N 20°29' W 086°59'0 0.0
2019-Aug-13 19:30N 20°29' W 086°59'0 0.0
2019-Aug-13 19:00N 20°29' W 086°59'0 0.0
2019-Aug-13 18:30N 20°29' W 086°59'0 0.0
2019-Aug-13 18:00N 20°29' W 086°59'0 0.0
2019-Aug-13 17:27N 20°29' W 086°59'0 0.0
2019-Aug-13 16:57N 20°29' W 086°59'0 0.0
2019-Aug-13 16:30N 20°29' W 086°59'0 0.0
2019-Aug-13 15:57N 20°29' W 086°59'0 0.0
2019-Aug-13 15:30N 20°29' W 086°59'0 0.0
2019-Aug-13 15:00N 20°29' W 086°59'0 0.0
2019-Aug-13 14:30N 20°29' W 086°59'0 0.0
2019-Aug-13 14:00N 20°29' W 086°59'6962.8
2019-Aug-13 14:00N 20°24' W 086°54'613.0 130 / 41014.010.8 29.327.5
2019-Aug-13 13:30N 20°29' W 086°59'0 0.0
2019-Aug-13 13:00N 20°29' W 086°59'0 0.0
2019-Aug-13 12:30N 20°29' W 086°59'2 3.3
2019-Aug-13 12:00N 20°30' W 086°59'713.4
2019-Aug-13 11:30N 20°36' W 086°57'917.8
2019-Aug-13 11:00N 20°43' W 086°50'30517.9
2019-Aug-12 18:00N 25°00' W 089°48'27618.9 220 / 31016.010.8 30.428.531.0
2019-Aug-12 03:25N 28°25' W 093°14'1719.0
2019-Aug-12 02:31N 28°36' W 093°30'118.8
2019-Aug-12 02:27N 28°36' W 093°31'1318.3
2019-Aug-12 01:46N 28°43' W 093°42'2417.9
2019-Aug-12 00:26N 28°57' W 094°05'817.0
2019-Aug-11 23:59N 29°02' W 094°12'816.6
2019-Aug-11 23:30N 29°06' W 094°19'815.5
2019-Aug-11 23:00N 29°10' W 094°27'815.8
2019-Aug-11 22:30N 29°15' W 094°34'713.7
2019-Aug-11 22:00N 29°20' W 094°40'612.3
2019-Aug-11 21:30N 29°19' W 094°47'2 3.2
2019-Aug-11 21:00N 29°19' W 094°48'0 0.0
2019-Aug-11 20:28N 29°19' W 094°48'0 0.0
2019-Aug-11 19:58N 29°19' W 094°48'0 0.0
2019-Aug-11 19:28N 29°19' W 094°48'0 0.0
2019-Aug-11 18:58N 29°19' W 094°48'0 0.0
2019-Aug-11 18:28N 29°19' W 094°48'0 0.0
2019-Aug-11 17:55N 29°19' W 094°48'0 0.0
2019-Aug-11 17:28N 29°19' W 094°48'1 1.1
2019-Aug-11 17:00N 29°18' W 094°48'123.5 170 / 91017.010.8 30.628.4
2019-Aug-11 16:58N 29°19' W 094°48'0 0.0
2019-Aug-11 16:28N 29°19' W 094°48'0 0.0
2019-Aug-11 15:58N 29°19' W 094°48'0 0.0
2019-Aug-11 15:28N 29°19' W 094°48'0 0.0
2019-Aug-11 14:58N 29°19' W 094°48'0 0.0
2019-Aug-11 14:28N 29°19' W 094°48'0 0.0
2019-Aug-11 13:58N 29°19' W 094°48'0 0.0
2019-Aug-11 13:28N 29°19' W 094°48'0 0.0
2019-Aug-11 12:49N 29°19' W 094°48'0 0.0
2019-Aug-11 12:13N 29°19' W 094°48'0 0.0
2019-Aug-11 11:37N 29°19' W 094°48'0 0.0
2019-Aug-11 11:15N 29°19' W 094°48'0 1.2
2019-Aug-11 11:00N 29°19' W 094°48'4 7.7
2019-Aug-11 10:30N 29°21' W 094°44'713.2
2019-Aug-11 09:59N 29°18' W 094°37'714.2
2019-Aug-11 09:29N 29°14' W 094°30'916.2
2019-Aug-11 08:57N 29°09' W 094°22'715.8
2019-Aug-11 08:30N 29°05' W 094°16'816.3
2019-Aug-11 08:00N 29°00' W 094°08'816.3
2019-Aug-11 07:30N 28°56' W 094°00'816.6
2019-Aug-11 07:01N 28°51' W 093°52'917.1
2019-Aug-11 06:28N 28°46' W 093°44'817.2
2019-Aug-11 06:00N 28°41' W 093°36'816.9
2019-Aug-11 05:30N 28°36' W 093°29'917.3
2019-Aug-11 05:00N 28°31' W 093°21'1017.3
2019-Aug-11 04:24N 28°25' W 093°11'717.3
2019-Aug-11 04:00N 28°21' W 093°05'816.6
2019-Aug-11 03:30N 28°17' W 092°57'816.2
2019-Aug-11 03:00N 28°11' W 092°50'6120.3
2019-Aug-11 00:00N 27°24' W 092°06'10517.4 070 / 61015.010.8 30.028.7
2019-Aug-10 18:00N 26°06' W 090°48'19121.2 110 / 41016.010.8
2019-Aug-10 09:00N 23°42' W 088°30'   140 / 101015.010.8 28.026.6

Dump ship's entire track history